sensor_id;sensor_type;location;lat;lon;timestamp;pressure;altitude;pressure_sealevel;temperature;humidity
31761;BME280;18335;51.486;7.562;2023-03-01T00:02:21;101640.81;;;-3.97;100.00
31761;BME280;18335;51.486;7.562;2023-03-01T00:04:48;101630.13;;;-3.95;100.00
31761;BME280;18335;51.486;7.562;2023-03-01T00:07:14;101627.00;;;-4.11;100.00
31761;BME280;18335;51.486;7.562;2023-03-01T00:09:41;101624.75;;;-3.94;100.00
31761;BME280;18335;51.486;7.562;2023-03-01T00:12:11;101625.94;;;-4.05;100.00
31761;BME280;18335;51.486;7.562;2023-03-01T00:14:39;101615.22;;;-4.02;100.00
31761;BME280;18335;51.486;7.562;2023-03-01T00:17:06;101620.47;;;-3.99;100.00
31761;BME280;18335;51.486;7.562;2023-03-01T00:19:32;101622.41;;;-4.06;100.00
31761;BME280;18335;51.486;7.562;2023-03-01T00:21:59;101621.63;;;-4.09;100.00
31761;BME280;18335;51.486;7.562;2023-03-01T00:24:26;101620.94;;;-4.17;100.00
31761;BME280;18335;51.486;7.562;2023-03-01T00:26:53;101621.09;;;-4.23;100.00
31761;BME280;18335;51.486;7.562;2023-03-01T00:29:21;101621.00;;;-4.20;100.00
31761;BME280;18335;51.486;7.562;2023-03-01T00:31:49;101621.00;;;-4.19;100.00
31761;BME280;18335;51.486;7.562;2023-03-01T00:34:16;101614.88;;;-4.24;100.00
31761;BME280;18335;51.486;7.562;2023-03-01T00:36:42;101606.13;;;-4.27;100.00
31761;BME280;18335;51.486;7.562;2023-03-01T00:39:11;101604.78;;;-4.11;100.00
31761;BME280;18335;51.486;7.562;2023-03-01T00:41:39;101598.56;;;-4.10;100.00
31761;BME280;18335;51.486;7.562;2023-03-01T00:44:07;101606.03;;;-4.24;100.00
31761;BME280;18335;51.486;7.562;2023-03-01T00:46:35;101601.19;;;-4.44;100.00
31761;BME280;18335;51.486;7.562;2023-03-01T00:49:03;101598.19;;;-4.30;100.00
31761;BME280;18335;51.486;7.562;2023-03-01T00:51:30;101597.09;;;-4.22;100.00
31761;BME280;18335;51.486;7.562;2023-03-01T00:54:00;101594.69;;;-4.32;100.00
31761;BME280;18335;51.486;7.562;2023-03-01T00:56:27;101578.69;;;-4.32;100.00
31761;BME280;18335;51.486;7.562;2023-03-01T00:58:55;101579.66;;;-4.35;100.00
31761;BME280;18335;51.486;7.562;2023-03-01T01:01:24;101583.56;;;-4.48;100.00
31761;BME280;18335;51.486;7.562;2023-03-01T01:03:55;101578.94;;;-4.41;100.00
31761;BME280;18335;51.486;7.562;2023-03-01T01:06:25;101578.31;;;-4.51;100.00
31761;BME280;18335;51.486;7.562;2023-03-01T01:08:53;101575.66;;;-4.53;100.00
31761;BME280;18335;51.486;7.562;2023-03-01T01:11:21;101564.66;;;-4.73;100.00
31761;BME280;18335;51.486;7.562;2023-03-01T01:13:48;101559.19;;;-4.68;100.00
31761;BME280;18335;51.486;7.562;2023-03-01T01:16:17;101562.94;;;-4.75;100.00
31761;BME280;18335;51.486;7.562;2023-03-01T01:18:44;101573.00;;;-4.88;100.00
31761;BME280;18335;51.486;7.562;2023-03-01T01:21:13;101565.97;;;-4.90;100.00
31761;BME280;18335;51.486;7.562;2023-03-01T01:23:42;101564.81;;;-4.80;100.00
31761;BME280;18335;51.486;7.562;2023-03-01T01:26:12;101566.34;;;-4.70;100.00
31761;BME280;18335;51.486;7.562;2023-03-01T01:28:39;101570.72;;;-4.68;100.00
31761;BME280;18335;51.486;7.562;2023-03-01T01:31:06;101580.94;;;-4.86;100.00
31761;BME280;18335;51.486;7.562;2023-03-01T01:33:34;101579.50;;;-5.01;100.00
31761;BME280;18335;51.486;7.562;2023-03-01T01:36:00;101572.94;;;-4.85;100.00
31761;BME280;18335;51.486;7.562;2023-03-01T01:38:27;101575.59;;;-4.86;100.00
31761;BME280;18335;51.486;7.562;2023-03-01T01:40:55;101575.38;;;-4.76;100.00
31761;BME280;18335;51.486;7.562;2023-03-01T01:43:24;101577.28;;;-4.82;100.00
31761;BME280;18335;51.486;7.562;2023-03-01T01:45:51;101581.72;;;-4.81;100.00
31761;BME280;18335;51.486;7.562;2023-03-01T01:48:21;101577.03;;;-4.72;100.00
31761;BME280;18335;51.486;7.562;2023-03-01T01:50:54;101585.09;;;-4.75;100.00
31761;BME280;18335;51.486;7.562;2023-03-01T01:53:24;101571.63;;;-5.06;100.00
31761;BME280;18335;51.486;7.562;2023-03-01T01:55:54;101557.38;;;-5.03;100.00
31761;BME280;18335;51.486;7.562;2023-03-01T01:58:26;101546.72;;;-4.66;100.00
31761;BME280;18335;51.486;7.562;2023-03-01T02:00:54;101553.19;;;-4.76;100.00
31761;BME280;18335;51.486;7.562;2023-03-01T02:03:25;101557.53;;;-5.09;100.00
31761;BME280;18335;51.486;7.562;2023-03-01T02:06:00;101539.22;;;-4.86;100.00
31761;BME280;18335;51.486;7.562;2023-03-01T02:08:31;101545.06;;;-4.70;100.00
31761;BME280;18335;51.486;7.562;2023-03-01T02:11:00;101540.06;;;-4.84;100.00
31761;BME280;18335;51.486;7.562;2023-03-01T02:13:31;101553.59;;;-4.93;100.00
31761;BME280;18335;51.486;7.562;2023-03-01T02:15:58;101538.75;;;-5.03;100.00
31761;BME280;18335;51.486;7.562;2023-03-01T02:18:26;101538.06;;;-5.11;100.00
31761;BME280;18335;51.486;7.562;2023-03-01T02:21:05;101547.63;;;-5.03;100.00
31761;BME280;18335;51.486;7.562;2023-03-01T02:23:36;101536.25;;;-5.09;100.00
31761;BME280;18335;51.486;7.562;2023-03-01T02:26:07;101541.69;;;-5.15;100.00
31761;BME280;18335;51.486;7.562;2023-03-01T02:28:42;101532.81;;;-5.14;100.00
31761;BME280;18335;51.486;7.562;2023-03-01T02:31:14;101529.94;;;-5.05;100.00
31761;BME280;18335;51.486;7.562;2023-03-01T02:34:00;101530.00;;;-5.08;100.00
31761;BME280;18335;51.486;7.562;2023-03-01T02:36:32;101528.59;;;-5.23;100.00
31761;BME280;18335;51.486;7.562;2023-03-01T02:39:02;101532.88;;;-5.17;100.00
31761;BME280;18335;51.486;7.562;2023-03-01T02:41:32;101539.88;;;-5.13;100.00
31761;BME280;18335;51.486;7.562;2023-03-01T02:44:03;101548.94;;;-5.20;100.00
31761;BME280;18335;51.486;7.562;2023-03-01T02:46:31;101549.13;;;-5.29;100.00
31761;BME280;18335;51.486;7.562;2023-03-01T02:48:58;101543.88;;;-5.32;100.00
31761;BME280;18335;51.486;7.562;2023-03-01T02:51:42;101537.56;;;-5.28;100.00
31761;BME280;18335;51.486;7.562;2023-03-01T02:54:17;101533.38;;;-5.38;100.00
31761;BME280;18335;51.486;7.562;2023-03-01T02:56:46;101532.44;;;-5.36;100.00
31761;BME280;18335;51.486;7.562;2023-03-01T02:59:19;101530.91;;;-5.47;100.00
31761;BME280;18335;51.486;7.562;2023-03-01T03:01:47;101533.84;;;-5.60;100.00
31761;BME280;18335;51.486;7.562;2023-03-01T03:04:17;101524.91;;;-5.57;100.00
31761;BME280;18335;51.486;7.562;2023-03-01T03:06:49;101520.03;;;-5.37;100.00
31761;BME280;18335;51.486;7.562;2023-03-01T03:09:17;101519.22;;;-5.40;100.00
31761;BME280;18335;51.486;7.562;2023-03-01T03:11:45;101521.09;;;-5.44;100.00
31761;BME280;18335;51.486;7.562;2023-03-01T03:14:13;101524.72;;;-5.48;100.00
31761;BME280;18335;51.486;7.562;2023-03-01T03:16:47;101524.59;;;-5.83;100.00
31761;BME280;18335;51.486;7.562;2023-03-01T03:19:15;101515.22;;;-5.60;100.00
31761;BME280;18335;51.486;7.562;2023-03-01T03:21:42;101515.31;;;-5.24;100.00
31761;BME280;18335;51.486;7.562;2023-03-01T03:24:08;101518.88;;;-5.25;100.00
31761;BME280;18335;51.486;7.562;2023-03-01T03:26:35;101522.72;;;-5.38;100.00
31761;BME280;18335;51.486;7.562;2023-03-01T03:29:02;101517.91;;;-5.61;100.00
31761;BME280;18335;51.486;7.562;2023-03-01T03:31:29;101520.56;;;-5.61;100.00
31761;BME280;18335;51.486;7.562;2023-03-01T03:33:57;101520.50;;;-5.58;100.00
31761;BME280;18335;51.486;7.562;2023-03-01T03:36:25;101518.16;;;-5.72;100.00
31761;BME280;18335;51.486;7.562;2023-03-01T03:38:52;101517.94;;;-5.63;100.00
31761;BME280;18335;51.486;7.562;2023-03-01T03:41:18;101506.38;;;-5.60;100.00
31761;BME280;18335;51.486;7.562;2023-03-01T03:43:45;101500.31;;;-5.67;100.00
31761;BME280;18335;51.486;7.562;2023-03-01T03:46:12;101498.38;;;-5.58;100.00
31761;BME280;18335;51.486;7.562;2023-03-01T03:48:42;101484.28;;;-5.64;100.00
31761;BME280;18335;51.486;7.562;2023-03-01T03:51:12;101491.47;;;-5.67;100.00
31761;BME280;18335;51.486;7.562;2023-03-01T03:53:40;101485.44;;;-5.75;100.00
31761;BME280;18335;51.486;7.562;2023-03-01T03:56:07;101484.44;;;-5.70;100.00
31761;BME280;18335;51.486;7.562;2023-03-01T03:58:34;101477.66;;;-5.84;100.00
31761;BME280;18335;51.486;7.562;2023-03-01T04:01:01;101474.00;;;-5.79;100.00
31761;BME280;18335;51.486;7.562;2023-03-01T04:03:29;101476.63;;;-5.77;100.00
31761;BME280;18335;51.486;7.562;2023-03-01T04:05:57;101480.78;;;-6.04;100.00
31761;BME280;18335;51.486;7.562;2023-03-01T04:08:27;101480.91;;;-6.10;100.00
31761;BME280;18335;51.486;7.562;2023-03-01T04:10:57;101489.72;;;-6.08;100.00
31761;BME280;18335;51.486;7.562;2023-03-01T04:13:24;101489.47;;;-5.96;100.00
31761;BME280;18335;51.486;7.562;2023-03-01T04:15:53;101488.75;;;-6.04;100.00
31761;BME280;18335;51.486;7.562;2023-03-01T04:18:21;101494.66;;;-5.90;100.00
31761;BME280;18335;51.486;7.562;2023-03-01T04:20:49;101495.16;;;-6.14;100.00
31761;BME280;18335;51.486;7.562;2023-03-01T04:23:19;101499.25;;;-5.98;100.00
31761;BME280;18335;51.486;7.562;2023-03-01T04:25:49;101500.31;;;-6.06;100.00
31761;BME280;18335;51.486;7.562;2023-03-01T04:28:19;101492.00;;;-5.90;100.00
31761;BME280;18335;51.486;7.562;2023-03-01T04:30:47;101502.94;;;-6.05;100.00
31761;BME280;18335;51.486;7.562;2023-03-01T04:33:14;101494.25;;;-6.13;100.00
31761;BME280;18335;51.486;7.562;2023-03-01T04:35:40;101496.63;;;-5.99;100.00
31761;BME280;18335;51.486;7.562;2023-03-01T04:38:08;101495.91;;;-6.09;100.00
31761;BME280;18335;51.486;7.562;2023-03-01T04:40:36;101490.78;;;-6.17;100.00
31761;BME280;18335;51.486;7.562;2023-03-01T04:43:04;101490.66;;;-6.12;100.00
31761;BME280;18335;51.486;7.562;2023-03-01T04:45:32;101488.13;;;-6.18;100.00
31761;BME280;18335;51.486;7.562;2023-03-01T04:47:59;101486.34;;;-6.16;100.00
31761;BME280;18335;51.486;7.562;2023-03-01T04:50:26;101486.28;;;-6.13;100.00
31761;BME280;18335;51.486;7.562;2023-03-01T04:52:53;101489.94;;;-6.19;100.00
31761;BME280;18335;51.486;7.562;2023-03-01T04:55:24;101494.31;;;-6.18;100.00
31761;BME280;18335;51.486;7.562;2023-03-01T04:57:51;101496.38;;;-6.32;100.00
31761;BME280;18335;51.486;7.562;2023-03-01T05:00:21;101498.75;;;-6.17;100.00
31761;BME280;18335;51.486;7.562;2023-03-01T05:02:50;101498.69;;;-6.15;100.00
31761;BME280;18335;51.486;7.562;2023-03-01T05:05:26;101489.38;;;-6.36;100.00
31761;BME280;18335;51.486;7.562;2023-03-01T05:07:54;101491.06;;;-6.30;100.00
31761;BME280;18335;51.486;7.562;2023-03-01T05:10:22;101498.97;;;-6.29;100.00
31761;BME280;18335;51.486;7.562;2023-03-01T05:12:49;101497.16;;;-6.25;100.00
31761;BME280;18335;51.486;7.562;2023-03-01T05:15:17;101484.94;;;-6.35;100.00
31761;BME280;18335;51.486;7.562;2023-03-01T05:17:46;101498.09;;;-6.29;100.00
31761;BME280;18335;51.486;7.562;2023-03-01T05:20:12;101488.72;;;-6.47;100.00
31761;BME280;18335;51.486;7.562;2023-03-01T05:22:39;101486.72;;;-6.36;100.00
31761;BME280;18335;51.486;7.562;2023-03-01T05:25:06;101483.22;;;-6.36;100.00
31761;BME280;18335;51.486;7.562;2023-03-01T05:27:33;101480.44;;;-6.30;100.00
31761;BME280;18335;51.486;7.562;2023-03-01T05:30:01;101484.16;;;-6.40;100.00
31761;BME280;18335;51.486;7.562;2023-03-01T05:32:40;101479.84;;;-6.47;100.00
31761;BME280;18335;51.486;7.562;2023-03-01T05:35:10;101474.44;;;-6.41;100.00
31761;BME280;18335;51.486;7.562;2023-03-01T05:37:42;101471.75;;;-5.97;100.00
31761;BME280;18335;51.486;7.562;2023-03-01T05:40:10;101462.75;;;-5.51;100.00
31761;BME280;18335;51.486;7.562;2023-03-01T05:42:45;101466.63;;;-5.65;100.00
31761;BME280;18335;51.486;7.562;2023-03-01T05:45:13;101468.34;;;-5.64;100.00
31761;BME280;18335;51.486;7.562;2023-03-01T05:47:41;101471.34;;;-5.79;100.00
31761;BME280;18335;51.486;7.562;2023-03-01T05:50:16;101473.63;;;-6.00;100.00
31761;BME280;18335;51.486;7.562;2023-03-01T05:52:45;101478.00;;;-5.98;100.00
31761;BME280;18335;51.486;7.562;2023-03-01T05:55:12;101477.31;;;-6.09;100.00
31761;BME280;18335;51.486;7.562;2023-03-01T05:57:39;101477.38;;;-6.12;100.00
31761;BME280;18335;51.486;7.562;2023-03-01T06:00:07;101477.09;;;-6.41;100.00
31761;BME280;18335;51.486;7.562;2023-03-01T06:02:37;101476.13;;;-6.37;100.00
31761;BME280;18335;51.486;7.562;2023-03-01T06:05:06;101481.41;;;-6.36;100.00
31761;BME280;18335;51.486;7.562;2023-03-01T06:07:35;101465.97;;;-6.15;100.00
31761;BME280;18335;51.486;7.562;2023-03-01T06:10:02;101469.72;;;-6.26;100.00
31761;BME280;18335;51.486;7.562;2023-03-01T06:12:30;101482.09;;;-6.26;100.00
31761;BME280;18335;51.486;7.562;2023-03-01T06:14:57;101476.69;;;-6.20;100.00
31761;BME280;18335;51.486;7.562;2023-03-01T06:17:24;101483.31;;;-6.42;100.00
31761;BME280;18335;51.486;7.562;2023-03-01T06:19:50;101478.72;;;-6.34;100.00
31761;BME280;18335;51.486;7.562;2023-03-01T06:22:17;101483.16;;;-6.33;100.00
31761;BME280;18335;51.486;7.562;2023-03-01T06:24:45;101490.06;;;-6.26;100.00
31761;BME280;18335;51.486;7.562;2023-03-01T06:27:12;101485.59;;;-6.24;100.00
31761;BME280;18335;51.486;7.562;2023-03-01T06:29:38;101472.53;;;-6.35;100.00
31761;BME280;18335;51.486;7.562;2023-03-01T06:32:06;101467.75;;;-6.16;100.00
31761;BME280;18335;51.486;7.562;2023-03-01T06:34:33;101475.25;;;-6.38;100.00
31761;BME280;18335;51.486;7.562;2023-03-01T06:37:00;101483.09;;;-6.30;100.00
31761;BME280;18335;51.486;7.562;2023-03-01T06:39:28;101478.50;;;-6.22;100.00
31761;BME280;18335;51.486;7.562;2023-03-01T06:41:56;101475.78;;;-6.21;100.00
31761;BME280;18335;51.486;7.562;2023-03-01T06:44:22;101468.72;;;-6.20;100.00
31761;BME280;18335;51.486;7.562;2023-03-01T06:46:49;101461.69;;;-6.23;100.00
31761;BME280;18335;51.486;7.562;2023-03-01T06:49:16;101461.56;;;-6.18;100.00
31761;BME280;18335;51.486;7.562;2023-03-01T06:51:43;101463.22;;;-6.11;100.00
31761;BME280;18335;51.486;7.562;2023-03-01T06:54:10;101459.47;;;-6.01;100.00
31761;BME280;18335;51.486;7.562;2023-03-01T06:56:37;101455.00;;;-5.99;100.00
31761;BME280;18335;51.486;7.562;2023-03-01T06:59:05;101462.94;;;-5.97;100.00
31761;BME280;18335;51.486;7.562;2023-03-01T07:01:32;101458.13;;;-5.82;100.00
31761;BME280;18335;51.486;7.562;2023-03-01T07:03:58;101458.03;;;-5.79;100.00
31761;BME280;18335;51.486;7.562;2023-03-01T07:06:25;101454.63;;;-5.84;100.00
31761;BME280;18335;51.486;7.562;2023-03-01T07:08:52;101460.38;;;-5.64;100.00
31761;BME280;18335;51.486;7.562;2023-03-01T07:11:18;101462.81;;;-5.54;100.00
31761;BME280;18335;51.486;7.562;2023-03-01T07:13:45;101461.88;;;-5.52;100.00
31761;BME280;18335;51.486;7.562;2023-03-01T07:16:13;101462.53;;;-5.42;100.00
31761;BME280;18335;51.486;7.562;2023-03-01T07:18:40;101458.75;;;-5.32;100.00
31761;BME280;18335;51.486;7.562;2023-03-01T07:21:08;101450.88;;;-5.37;100.00
31761;BME280;18335;51.486;7.562;2023-03-01T07:23:37;101452.06;;;-5.13;100.00
31761;BME280;18335;51.486;7.562;2023-03-01T07:26:04;101451.19;;;-5.14;100.00
31761;BME280;18335;51.486;7.562;2023-03-01T07:28:31;101438.22;;;-4.92;100.00
31761;BME280;18335;51.486;7.562;2023-03-01T07:31:01;101442.66;;;-4.92;100.00
31761;BME280;18335;51.486;7.562;2023-03-01T07:33:29;101434.91;;;-4.66;100.00
31761;BME280;18335;51.486;7.562;2023-03-01T07:35:57;101440.97;;;-4.61;100.00
31761;BME280;18335;51.486;7.562;2023-03-01T07:38:24;101440.06;;;-4.60;100.00
31761;BME280;18335;51.486;7.562;2023-03-01T07:40:51;101428.13;;;-4.45;100.00
31761;BME280;18335;51.486;7.562;2023-03-01T07:43:17;101424.34;;;-4.38;100.00
31761;BME280;18335;51.486;7.562;2023-03-01T07:45:44;101425.59;;;-4.19;100.00
31761;BME280;18335;51.486;7.562;2023-03-01T07:48:11;101424.31;;;-4.06;100.00
31761;BME280;18335;51.486;7.562;2023-03-01T07:50:39;101423.66;;;-3.85;100.00
31761;BME280;18335;51.486;7.562;2023-03-01T07:53:06;101425.84;;;-3.70;100.00
31761;BME280;18335;51.486;7.562;2023-03-01T07:55:32;101423.50;;;-3.51;100.00
31761;BME280;18335;51.486;7.562;2023-03-01T07:57:59;101423.88;;;-3.36;100.00
31761;BME280;18335;51.486;7.562;2023-03-01T08:00:26;101430.47;;;-3.19;100.00
31761;BME280;18335;51.486;7.562;2023-03-01T08:02:52;101436.38;;;-3.10;100.00
31761;BME280;18335;51.486;7.562;2023-03-01T08:05:19;101436.75;;;-2.94;100.00
31761;BME280;18335;51.486;7.562;2023-03-01T08:07:48;101429.50;;;-2.91;100.00
31761;BME280;18335;51.486;7.562;2023-03-01T08:10:16;101425.66;;;-2.82;100.00
31761;BME280;18335;51.486;7.562;2023-03-01T08:12:42;101424.63;;;-2.78;100.00
31761;BME280;18335;51.486;7.562;2023-03-01T08:15:10;101424.94;;;-2.62;100.00
31761;BME280;18335;51.486;7.562;2023-03-01T08:17:37;101437.84;;;-2.49;100.00
31761;BME280;18335;51.486;7.562;2023-03-01T08:20:04;101421.28;;;-2.35;100.00
31761;BME280;18335;51.486;7.562;2023-03-01T08:22:32;101436.84;;;-2.21;100.00
31761;BME280;18335;51.486;7.562;2023-03-01T08:25:00;101429.41;;;-2.13;100.00
31761;BME280;18335;51.486;7.562;2023-03-01T08:27:27;101427.44;;;-2.08;100.00
31761;BME280;18335;51.486;7.562;2023-03-01T08:29:53;101421.34;;;-1.89;100.00
31761;BME280;18335;51.486;7.562;2023-03-01T08:32:20;101422.84;;;-1.82;100.00
31761;BME280;18335;51.486;7.562;2023-03-01T08:34:47;101417.09;;;-1.71;100.00
31761;BME280;18335;51.486;7.562;2023-03-01T08:37:13;101419.16;;;-1.56;100.00
31761;BME280;18335;51.486;7.562;2023-03-01T08:39:40;101415.75;;;-1.38;100.00
31761;BME280;18335;51.486;7.562;2023-03-01T08:42:08;101407.22;;;-1.26;100.00
31761;BME280;18335;51.486;7.562;2023-03-01T08:44:35;101399.59;;;-0.93;100.00
31761;BME280;18335;51.486;7.562;2023-03-01T08:47:01;101407.72;;;-0.74;100.00
31761;BME280;18335;51.486;7.562;2023-03-01T08:49:30;101405.91;;;-0.53;100.00
31761;BME280;18335;51.486;7.562;2023-03-01T08:51:57;101414.63;;;-0.48;100.00
31761;BME280;18335;51.486;7.562;2023-03-01T08:54:24;101418.44;;;-0.34;100.00
31761;BME280;18335;51.486;7.562;2023-03-01T08:56:51;101411.06;;;-0.29;100.00
31761;BME280;18335;51.486;7.562;2023-03-01T08:59:19;101407.03;;;-0.19;100.00
31761;BME280;18335;51.486;7.562;2023-03-01T09:01:46;101409.81;;;-0.02;100.00
31761;BME280;18335;51.486;7.562;2023-03-01T09:04:14;101415.19;;;-0.02;100.00
31761;BME280;18335;51.486;7.562;2023-03-01T09:06:41;101414.03;;;0.04;100.00
31761;BME280;18335;51.486;7.562;2023-03-01T09:09:13;101408.38;;;0.10;100.00
31761;BME280;18335;51.486;7.562;2023-03-01T09:11:41;101414.25;;;0.18;100.00
31761;BME280;18335;51.486;7.562;2023-03-01T09:14:08;101406.63;;;0.28;100.00
31761;BME280;18335;51.486;7.562;2023-03-01T09:16:36;101409.84;;;0.36;100.00
31761;BME280;18335;51.486;7.562;2023-03-01T09:19:03;101403.66;;;0.52;100.00
31761;BME280;18335;51.486;7.562;2023-03-01T09:21:30;101402.88;;;0.50;100.00
31761;BME280;18335;51.486;7.562;2023-03-01T09:23:57;101403.97;;;0.46;100.00
31761;BME280;18335;51.486;7.562;2023-03-01T09:26:25;101386.69;;;0.52;100.00
31761;BME280;18335;51.486;7.562;2023-03-01T09:28:53;101386.09;;;0.64;100.00
31761;BME280;18335;51.486;7.562;2023-03-01T09:31:22;101382.66;;;0.79;100.00
31761;BME280;18335;51.486;7.562;2023-03-01T09:33:52;101379.47;;;0.71;100.00
31761;BME280;18335;51.486;7.562;2023-03-01T09:36:21;101380.91;;;0.78;100.00
31761;BME280;18335;51.486;7.562;2023-03-01T09:38:48;101374.84;;;0.92;100.00
31761;BME280;18335;51.486;7.562;2023-03-01T09:41:26;101371.28;;;0.91;100.00
31761;BME280;18335;51.486;7.562;2023-03-01T09:44:00;101369.84;;;0.84;100.00
31761;BME280;18335;51.486;7.562;2023-03-01T09:46:37;101361.88;;;1.00;100.00
31761;BME280;18335;51.486;7.562;2023-03-01T09:49:10;101357.72;;;1.11;100.00
31761;BME280;18335;51.486;7.562;2023-03-01T09:51:37;101358.03;;;1.05;100.00
31761;BME280;18335;51.486;7.562;2023-03-01T09:54:05;101357.13;;;1.05;100.00
31761;BME280;18335;51.486;7.562;2023-03-01T09:56:37;101357.72;;;1.11;100.00
31761;BME280;18335;51.486;7.562;2023-03-01T09:59:15;101350.63;;;1.10;100.00
31761;BME280;18335;51.486;7.562;2023-03-01T10:01:52;101364.09;;;1.26;100.00
31761;BME280;18335;51.486;7.562;2023-03-01T10:04:39;101359.47;;;1.13;100.00
31761;BME280;18335;51.486;7.562;2023-03-01T10:07:20;101366.56;;;1.31;100.00
31761;BME280;18335;51.486;7.562;2023-03-01T10:09:48;101363.06;;;1.29;100.00
31761;BME280;18335;51.486;7.562;2023-03-01T10:12:17;101351.47;;;1.28;100.00
31761;BME280;18335;51.486;7.562;2023-03-01T10:14:51;101362.50;;;1.56;100.00
31761;BME280;18335;51.486;7.562;2023-03-01T10:17:26;101363.25;;;1.43;100.00
31761;BME280;18335;51.486;7.562;2023-03-01T10:20:05;101360.47;;;1.44;100.00
31761;BME280;18335;51.486;7.562;2023-03-01T10:22:37;101366.41;;;1.51;100.00
31761;BME280;18335;51.486;7.562;2023-03-01T10:25:04;101359.91;;;1.55;100.00
31761;BME280;18335;51.486;7.562;2023-03-01T10:27:36;101361.78;;;1.70;100.00
31761;BME280;18335;51.486;7.562;2023-03-01T10:30:13;101337.53;;;1.87;100.00
31761;BME280;18335;51.486;7.562;2023-03-01T10:32:43;101339.78;;;1.95;100.00
31761;BME280;18335;51.486;7.562;2023-03-01T10:35:20;101333.53;;;1.94;100.00
31761;BME280;18335;51.486;7.562;2023-03-01T10:37:58;101339.16;;;1.90;100.00
31761;BME280;18335;51.486;7.562;2023-03-01T10:40:28;101319.13;;;1.95;100.00
31761;BME280;18335;51.486;7.562;2023-03-01T10:42:57;101324.00;;;2.04;100.00
31761;BME280;18335;51.486;7.562;2023-03-01T10:45:36;101332.44;;;2.30;100.00
31761;BME280;18335;51.486;7.562;2023-03-01T10:48:11;101317.25;;;2.29;100.00
31761;BME280;18335;51.486;7.562;2023-03-01T10:50:42;101314.19;;;2.35;100.00
31761;BME280;18335;51.486;7.562;2023-03-01T10:53:22;101322.78;;;2.26;100.00
31761;BME280;18335;51.486;7.562;2023-03-01T10:55:57;101314.97;;;2.37;100.00
31761;BME280;18335;51.486;7.562;2023-03-01T10:58:25;101306.13;;;2.19;100.00
31761;BME280;18335;51.486;7.562;2023-03-01T11:00:53;101302.13;;;2.26;100.00
31761;BME280;18335;51.486;7.562;2023-03-01T11:03:23;101299.09;;;2.48;100.00
31761;BME280;18335;51.486;7.562;2023-03-01T11:05:55;101298.28;;;2.46;100.00
31761;BME280;18335;51.486;7.562;2023-03-01T11:08:34;101298.03;;;2.50;100.00
31761;BME280;18335;51.486;7.562;2023-03-01T11:11:06;101294.81;;;2.59;100.00
31761;BME280;18335;51.486;7.562;2023-03-01T11:13:34;101283.31;;;2.71;100.00
31761;BME280;18335;51.486;7.562;2023-03-01T11:16:03;101282.09;;;2.61;100.00
31761;BME280;18335;51.486;7.562;2023-03-01T11:18:32;101276.72;;;2.61;100.00
31761;BME280;18335;51.486;7.562;2023-03-01T11:21:01;101282.38;;;2.57;100.00
31761;BME280;18335;51.486;7.562;2023-03-01T11:23:30;101280.19;;;2.63;100.00
31761;BME280;18335;51.486;7.562;2023-03-01T11:26:00;101281.06;;;2.64;100.00
31761;BME280;18335;51.486;7.562;2023-03-01T11:28:29;101269.59;;;2.60;100.00
31761;BME280;18335;51.486;7.562;2023-03-01T11:31:00;101277.19;;;2.84;100.00
31761;BME280;18335;51.486;7.562;2023-03-01T11:33:35;101272.84;;;2.81;100.00
31761;BME280;18335;51.486;7.562;2023-03-01T11:36:11;101278.59;;;2.75;100.00
31761;BME280;18335;51.486;7.562;2023-03-01T11:38:40;101270.91;;;3.13;100.00
31761;BME280;18335;51.486;7.562;2023-03-01T11:41:11;101274.94;;;3.20;100.00
31761;BME280;18335;51.486;7.562;2023-03-01T11:43:46;101276.34;;;2.97;100.00
31761;BME280;18335;51.486;7.562;2023-03-01T11:46:40;101268.09;;;3.14;100.00
31761;BME280;18335;51.486;7.562;2023-03-01T11:49:31;101272.38;;;3.18;100.00
31761;BME280;18335;51.486;7.562;2023-03-01T11:52:05;101269.53;;;3.06;100.00
31761;BME280;18335;51.486;7.562;2023-03-01T11:54:47;101276.00;;;3.03;100.00
31761;BME280;18335;51.486;7.562;2023-03-01T11:57:22;101264.53;;;3.14;100.00
31761;BME280;18335;51.486;7.562;2023-03-01T11:59:59;101263.78;;;3.12;100.00
31761;BME280;18335;51.486;7.562;2023-03-01T12:02:52;101260.06;;;3.28;100.00
31761;BME280;18335;51.486;7.562;2023-03-01T12:05:46;101256.38;;;3.44;100.00
31761;BME280;18335;51.486;7.562;2023-03-01T12:08:24;101255.63;;;3.42;100.00
31761;BME280;18335;51.486;7.562;2023-03-01T12:11:03;101249.56;;;3.52;100.00
31761;BME280;18335;51.486;7.562;2023-03-01T12:16:56;101242.91;;;3.44;100.00
31761;BME280;18335;51.486;7.562;2023-03-01T12:19:46;101242.50;;;3.50;100.00
31761;BME280;18335;51.486;7.562;2023-03-01T12:22:28;101222.09;;;3.46;100.00
31761;BME280;18335;51.486;7.562;2023-03-01T12:25:17;101238.47;;;3.71;100.00
31761;BME280;18335;51.486;7.562;2023-03-01T12:28:04;101228.94;;;3.65;100.00
31761;BME280;18335;51.486;7.562;2023-03-01T12:30:44;101224.78;;;3.60;100.00
31761;BME280;18335;51.486;7.562;2023-03-01T12:33:21;101221.34;;;3.58;100.00
31761;BME280;18335;51.486;7.562;2023-03-01T12:36:25;101217.72;;;3.85;100.00
31761;BME280;18335;51.486;7.562;2023-03-01T12:38:59;101214.06;;;3.86;100.00
31761;BME280;18335;51.486;7.562;2023-03-01T12:41:44;101216.66;;;3.74;100.00
31761;BME280;18335;51.486;7.562;2023-03-01T12:44:25;101215.31;;;3.81;100.00
31761;BME280;18335;51.486;7.562;2023-03-01T12:47:14;101206.84;;;3.87;100.00
31761;BME280;18335;51.486;7.562;2023-03-01T12:49:46;101204.69;;;3.92;100.00
31761;BME280;18335;51.486;7.562;2023-03-01T12:52:17;101201.78;;;3.95;100.00
31761;BME280;18335;51.486;7.562;2023-03-01T12:54:49;101199.41;;;3.76;100.00
31761;BME280;18335;51.486;7.562;2023-03-01T12:57:25;101191.97;;;3.94;100.00
31761;BME280;18335;51.486;7.562;2023-03-01T13:00:05;101197.22;;;4.10;100.00
31761;BME280;18335;51.486;7.562;2023-03-01T13:02:38;101192.22;;;4.30;100.00